Time;durP1;ratioP1;P1;durP2;ratioP2;P2;SDS_P1;SDS_P2;PMS_P1;PMS_P2;Temp;Humidity;BMP_temperature;BMP_pressure;BME280_temperature;BME280_humidity;BME280_pressure;Samples;Min_cycle;Max_cycle;Signal;HPM_P1;HPM_P2
2021/11/28 00:00:45;;;;;;;20.60;10.75;;;;;;;;;;5012766;28;20477;-85
2021/11/28 00:03:48;;;;;;;19.70;11.77;;;;;;;;;;5020056;28;20361;-85
2021/11/28 00:06:23;;;;;;;22.27;12.20;;;;;;;;;;5033343;28;20031;-85
2021/11/28 00:09:15;;;;;;;22.17;11.45;;;;;;;;;;5010157;28;20404;-81
2021/11/28 00:11:43;;;;;;;18.90;10.88;;;;;;;;;;5027528;28;20050;-84
2021/11/28 00:14:11;;;;;;;19.45;11.18;;;;;;;;;;5011847;28;20037;-85
2021/11/28 00:16:37;;;;;;;21.90;11.50;;;;;;;;;;5022063;28;20039;-86
2021/11/28 00:19:06;;;;;;;20.70;12.25;;;;;;;;;;5014414;28;20053;-84
2021/11/28 00:21:32;;;;;;;21.63;11.85;;;;;;;;;;5009990;28;20038;-84
2021/11/28 00:23:58;;;;;;;21.95;12.32;;;;;;;;;;5023877;28;20044;-84
2021/11/28 00:26:23;;;;;;;22.90;11.70;;;;;;;;;;5011983;28;20431;-84
2021/11/28 00:28:49;;;;;;;22.92;12.57;;;;;;;;;;5001621;28;20113;-85
2021/11/28 00:31:15;;;;;;;23.75;13.02;;;;;;;;;;5006444;28;20029;-81
2021/11/28 00:33:40;;;;;;;25.23;12.85;;;;;;;;;;5028067;28;20021;-82
2021/11/28 00:36:06;;;;;;;20.73;12.18;;;;;;;;;;5014092;28;20029;-82
2021/11/28 00:38:31;;;;;;;23.63;12.52;;;;;;;;;;5019735;28;20017;-84
2021/11/28 00:40:57;;;;;;;22.38;11.95;;;;;;;;;;5018051;28;20443;-84
2021/11/28 00:43:23;;;;;;;20.55;11.82;;;;;;;;;;5014211;28;20030;-84
2021/11/28 00:45:49;;;;;;;20.83;11.95;;;;;;;;;;5013363;28;20029;-84
2021/11/28 00:48:15;;;;;;;21.67;11.80;;;;;;;;;;5013699;28;20033;-81
2021/11/28 00:50:47;;;;;;;25.25;12.48;;;;;;;;;;5005321;28;20036;-84
2021/11/28 00:53:16;;;;;;;24.77;12.95;;;;;;;;;;5030393;28;20227;-84
2021/11/28 00:55:41;;;;;;;23.40;12.82;;;;;;;;;;5009512;28;20032;-82
2021/11/28 00:58:07;;;;;;;23.60;12.82;;;;;;;;;;5012038;28;20025;-81
2021/11/28 01:00:33;;;;;;;24.25;12.98;;;;;;;;;;5011422;28;20115;-85
2021/11/28 01:02:58;;;;;;;25.30;13.93;;;;;;;;;;5034269;28;20481;-84
2021/11/28 01:05:23;;;;;;;27.50;13.52;;;;;;;;;;5028510;28;20022;-84
2021/11/28 01:07:49;;;;;;;25.13;12.60;;;;;;;;;;5004010;28;20780;-84
2021/11/28 01:10:14;;;;;;;21.75;11.65;;;;;;;;;;5011181;28;20072;-84
2021/11/28 01:12:41;;;;;;;24.55;12.35;;;;;;;;;;5027484;28;20030;-84
2021/11/28 01:15:08;;;;;;;24.60;12.85;;;;;;;;;;5017910;28;20899;-85
2021/11/28 01:17:34;;;;;;;20.85;12.40;;;;;;;;;;5023278;28;20489;-81
2021/11/28 01:20:04;;;;;;;25.52;12.40;;;;;;;;;;5023803;28;20112;-85
2021/11/28 01:22:30;;;;;;;21.90;12.70;;;;;;;;;;5010299;28;20116;-82
2021/11/28 01:24:55;;;;;;;25.48;12.93;;;;;;;;;;5015923;28;21972;-85
2021/11/28 01:27:21;;;;;;;23.38;12.68;;;;;;;;;;5021618;28;20397;-85
2021/11/28 01:29:46;;;;;;;21.20;12.43;;;;;;;;;;5010017;28;20499;-85
2021/11/28 01:32:12;;;;;;;24.52;13.25;;;;;;;;;;5008223;28;20037;-86
2021/11/28 01:34:38;;;;;;;24.10;12.40;;;;;;;;;;5017654;28;20017;-83
2021/11/28 01:37:05;;;;;;;25.08;13.18;;;;;;;;;;5013859;28;20026;-85
2021/11/28 01:39:31;;;;;;;21.48;12.65;;;;;;;;;;5032698;28;20025;-82
2021/11/28 01:41:56;;;;;;;22.40;13.15;;;;;;;;;;5011182;28;20503;-83
2021/11/28 01:44:22;;;;;;;23.58;13.27;;;;;;;;;;5013079;28;20029;-85
2021/11/28 01:46:47;;;;;;;22.23;12.15;;;;;;;;;;5004013;28;20136;-85
2021/11/28 01:49:13;;;;;;;22.48;12.50;;;;;;;;;;5013533;28;20035;-85
2021/11/28 01:51:39;;;;;;;24.70;13.35;;;;;;;;;;5005551;28;20029;-85
2021/11/28 01:54:14;;;;;;;23.58;12.90;;;;;;;;;;5013852;28;20029;-86
2021/11/28 01:56:42;;;;;;;21.10;12.52;;;;;;;;;;5014693;28;20084;-85
2021/11/28 01:59:09;;;;;;;20.92;11.50;;;;;;;;;;5014290;28;20026;-85
2021/11/28 02:01:35;;;;;;;22.77;11.80;;;;;;;;;;5013817;28;20030;-82
2021/11/28 02:04:02;;;;;;;24.35;12.32;;;;;;;;;;5016466;28;20116;-86
2021/11/28 02:06:27;;;;;;;21.58;12.15;;;;;;;;;;5024627;28;20021;-85
2021/11/28 02:08:54;;;;;;;22.95;12.07;;;;;;;;;;5012393;28;20029;-85
2021/11/28 02:11:20;;;;;;;22.92;12.85;;;;;;;;;;5014288;28;20046;-82
2021/11/28 02:13:45;;;;;;;21.98;12.05;;;;;;;;;;4990566;28;20036;-85
2021/11/28 02:16:13;;;;;;;25.42;13.07;;;;;;;;;;4991099;28;20026;-85
2021/11/28 02:18:39;;;;;;;23.10;11.70;;;;;;;;;;4990875;28;20053;-85
2021/11/28 02:21:06;;;;;;;22.05;12.40;;;;;;;;;;5005536;28;20085;-83
2021/11/28 02:23:32;;;;;;;24.02;11.82;;;;;;;;;;4991665;28;20029;-85
2021/11/28 02:26:01;;;;;;;25.17;12.65;;;;;;;;;;4995625;28;20022;-85
2021/11/28 02:28:31;;;;;;;23.13;12.50;;;;;;;;;;4988998;28;20049;-83
2021/11/28 02:30:56;;;;;;;20.42;12.23;;;;;;;;;;4993473;28;20125;-85
2021/11/28 02:33:22;;;;;;;23.60;12.73;;;;;;;;;;4998374;28;20053;-82
2021/11/28 02:35:47;;;;;;;23.58;12.80;;;;;;;;;;4996201;28;20477;-85
2021/11/28 02:38:14;;;;;;;23.50;12.75;;;;;;;;;;5000395;28;20041;-83
2021/11/28 02:40:41;;;;;;;21.38;11.95;;;;;;;;;;4997106;28;20478;-82
2021/11/28 02:43:06;;;;;;;22.50;12.77;;;;;;;;;;4989119;28;20037;-85
2021/11/28 02:45:32;;;;;;;21.42;12.18;;;;;;;;;;4994087;28;20044;-85
2021/11/28 02:48:00;;;;;;;24.25;12.63;;;;;;;;;;4982700;28;20034;-85
2021/11/28 02:50:26;;;;;;;22.63;11.43;;;;;;;;;;4993854;28;20675;-85
2021/11/28 02:52:55;;;;;;;23.20;12.90;;;;;;;;;;4990604;28;20032;-85
2021/11/28 02:55:29;;;;;;;20.65;11.35;;;;;;;;;;5005663;28;20060;-85
2021/11/28 02:57:56;;;;;;;21.92;12.32;;;;;;;;;;4991364;28;20021;-83
2021/11/28 03:00:29;;;;;;;24.27;13.40;;;;;;;;;;5004063;28;20026;-82
2021/11/28 03:02:54;;;;;;;22.48;12.32;;;;;;;;;;4995448;28;20116;-85
2021/11/28 03:05:20;;;;;;;23.25;12.20;;;;;;;;;;4996058;28;20121;-85
2021/11/28 03:07:45;;;;;;;20.58;11.38;;;;;;;;;;4991217;28;20093;-85
2021/11/28 03:10:34;;;;;;;22.25;12.55;;;;;;;;;;4992530;28;20038;-86
2021/11/28 03:13:01;;;;;;;22.35;12.05;;;;;;;;;;4987209;28;20034;-85
2021/11/28 03:15:27;;;;;;;22.10;12.98;;;;;;;;;;4988176;28;20060;-85
2021/11/28 03:17:53;;;;;;;22.92;11.98;;;;;;;;;;5005956;28;20061;-85
2021/11/28 03:20:18;;;;;;;23.58;12.60;;;;;;;;;;5012746;28;20449;-85
2021/11/28 03:22:55;;;;;;;21.70;12.30;;;;;;;;;;4993110;28;20038;-85
2021/11/28 03:25:23;;;;;;;21.25;12.00;;;;;;;;;;4972281;28;20026;-83
2021/11/28 03:27:49;;;;;;;22.52;12.98;;;;;;;;;;5009135;28;20033;-83
2021/11/28 03:30:16;;;;;;;22.88;12.00;;;;;;;;;;5009768;28;20026;-85
2021/11/28 03:32:41;;;;;;;24.40;12.95;;;;;;;;;;5001073;28;20025;-82
2021/11/28 03:35:08;;;;;;;23.60;12.50;;;;;;;;;;4996627;28;20026;-85
2021/11/28 03:37:33;;;;;;;25.27;12.73;;;;;;;;;;4996566;28;20083;-85
2021/11/28 03:39:59;;;;;;;25.42;12.90;;;;;;;;;;4995303;28;20496;-85
2021/11/28 03:42:25;;;;;;;24.83;12.55;;;;;;;;;;5004089;28;20416;-83
2021/11/28 03:44:51;;;;;;;24.52;13.18;;;;;;;;;;5007754;28;20030;-86
2021/11/28 03:47:17;;;;;;;25.33;12.18;;;;;;;;;;5020275;28;20030;-85
2021/11/28 03:49:43;;;;;;;22.30;11.95;;;;;;;;;;4982960;28;20030;-85
2021/11/28 03:52:08;;;;;;;24.70;12.73;;;;;;;;;;4987088;28;20546;-82
2021/11/28 03:54:34;;;;;;;23.23;13.20;;;;;;;;;;5014961;28;20543;-85
2021/11/28 03:57:00;;;;;;;25.85;13.27;;;;;;;;;;5008470;28;20539;-85
2021/11/28 03:59:25;;;;;;;23.80;12.60;;;;;;;;;;4997989;28;20030;-82
2021/11/28 04:01:51;;;;;;;21.42;11.20;;;;;;;;;;4990512;28;20097;-85
2021/11/28 04:04:16;;;;;;;26.35;12.93;;;;;;;;;;4982169;28;20033;-85
2021/11/28 04:06:42;;;;;;;25.60;13.43;;;;;;;;;;4992221;28;20076;-85
2021/11/28 04:09:08;;;;;;;22.88;12.30;;;;;;;;;;5007881;28;20084;-85
2021/11/28 04:11:33;;;;;;;21.77;11.60;;;;;;;;;;4991307;28;20052;-82
2021/11/28 04:13:59;;;;;;;25.38;12.93;;;;;;;;;;5010161;28;20448;-85
2021/11/28 04:16:24;;;;;;;24.02;12.70;;;;;;;;;;4984964;28;20030;-85
2021/11/28 04:18:49;;;;;;;23.02;12.10;;;;;;;;;;5010086;28;20022;-85
2021/11/28 04:21:15;;;;;;;24.00;12.43;;;;;;;;;;4997227;28;20037;-85
2021/11/28 04:23:40;;;;;;;23.05;11.90;;;;;;;;;;5012083;28;20374;-85
2021/11/28 04:26:06;;;;;;;23.23;12.85;;;;;;;;;;5014276;28;20030;-85
2021/11/28 04:28:32;;;;;;;23.30;11.95;;;;;;;;;;5005505;28;20050;-86
2021/11/28 04:30:57;;;;;;;32.25;13.18;;;;;;;;;;5015133;28;20030;-85
2021/11/28 04:33:23;;;;;;;22.48;12.68;;;;;;;;;;5014856;28;20037;-83
2021/11/28 04:35:48;;;;;;;24.27;13.32;;;;;;;;;;5016908;28;20485;-85
2021/11/28 04:38:13;;;;;;;24.45;13.32;;;;;;;;;;5011150;28;20037;-85
2021/11/28 04:40:40;;;;;;;25.65;12.68;;;;;;;;;;4989490;28;20034;-85
2021/11/28 04:43:05;;;;;;;26.23;13.27;;;;;;;;;;5013273;28;20158;-85
2021/11/28 04:45:31;;;;;;;22.90;12.73;;;;;;;;;;4988336;28;20084;-85
2021/11/28 04:47:56;;;;;;;24.83;13.43;;;;;;;;;;5005462;28;20740;-85
2021/11/28 04:50:21;;;;;;;26.65;13.88;;;;;;;;;;4994044;28;20073;-85
2021/11/28 04:52:47;;;;;;;23.48;12.80;;;;;;;;;;4994422;28;20108;-85
2021/11/28 04:55:13;;;;;;;21.92;12.68;;;;;;;;;;4994779;28;20125;-82
2021/11/28 04:57:40;;;;;;;23.90;12.93;;;;;;;;;;4992674;28;20033;-86
2021/11/28 05:00:09;;;;;;;24.55;12.77;;;;;;;;;;4990166;28;20022;-85
2021/11/28 05:02:35;;;;;;;22.95;13.07;;;;;;;;;;4992810;28;20585;-82
2021/11/28 05:05:00;;;;;;;26.55;12.82;;;;;;;;;;5018056;28;20030;-85
2021/11/28 05:07:26;;;;;;;22.15;12.07;;;;;;;;;;4983962;28;20493;-86
2021/11/28 05:09:51;;;;;;;22.73;12.30;;;;;;;;;;5009715;28;20398;-85
2021/11/28 05:12:17;;;;;;;24.90;12.23;;;;;;;;;;5016010;28;20049;-85
2021/11/28 05:14:43;;;;;;;22.60;13.07;;;;;;;;;;5010151;28;20050;-85
2021/11/28 05:17:08;;;;;;;21.00;11.88;;;;;;;;;;4992107;28;20521;-85
2021/11/28 05:19:34;;;;;;;20.02;11.73;;;;;;;;;;5015248;28;20041;-85
2021/11/28 05:22:01;;;;;;;24.40;13.02;;;;;;;;;;4996561;28;20030;-84
2021/11/28 05:24:26;;;;;;;21.33;11.52;;;;;;;;;;4999660;28;20079;-83
2021/11/28 05:26:52;;;;;;;20.17;11.48;;;;;;;;;;5004889;28;20446;-85
2021/11/28 05:29:18;;;;;;;22.17;12.60;;;;;;;;;;4998169;28;20044;-82
2021/11/28 05:31:44;;;;;;;21.05;11.88;;;;;;;;;;4985709;28;20125;-82
2021/11/28 05:34:09;;;;;;;23.33;12.98;;;;;;;;;;4988191;28;20125;-83
2021/11/28 05:36:34;;;;;;;21.30;11.93;;;;;;;;;;5007067;28;20030;-85
2021/11/28 05:39:00;;;;;;;23.10;12.18;;;;;;;;;;4989933;28;20030;-86
2021/11/28 05:41:25;;;;;;;21.33;12.07;;;;;;;;;;4993803;28;20389;-85
2021/11/28 05:43:51;;;;;;;22.65;12.23;;;;;;;;;;4997812;28;20396;-85
2021/11/28 05:46:17;;;;;;;24.00;12.60;;;;;;;;;;4992450;28;20077;-86
2021/11/28 05:48:42;;;;;;;22.83;11.73;;;;;;;;;;4985444;28;20026;-85
2021/11/28 05:51:08;;;;;;;21.65;11.70;;;;;;;;;;4990184;28;20552;-85
2021/11/28 05:53:33;;;;;;;21.05;11.80;;;;;;;;;;4997665;28;20040;-85
2021/11/28 05:55:59;;;;;;;24.15;12.30;;;;;;;;;;5016220;28;20038;-85
2021/11/28 05:58:25;;;;;;;22.08;11.30;;;;;;;;;;4995513;28;20433;-83
2021/11/28 06:00:50;;;;;;;20.02;11.07;;;;;;;;;;4997860;28;20026;-85
2021/11/28 06:03:16;;;;;;;22.35;12.27;;;;;;;;;;5009201;28;20072;-85
2021/11/28 06:05:44;;;;;;;23.13;11.95;;;;;;;;;;4984120;28;20080;-85
2021/11/28 06:08:09;;;;;;;22.45;11.77;;;;;;;;;;5012214;28;20044;-82
2021/11/28 06:10:35;;;;;;;20.33;11.00;;;;;;;;;;4995757;28;20068;-85
2021/11/28 06:13:00;;;;;;;19.38;10.98;;;;;;;;;;4995242;28;20441;-82
2021/11/28 06:15:26;;;;;;;20.42;11.27;;;;;;;;;;4990681;28;20030;-86
2021/11/28 06:17:51;;;;;;;21.75;11.88;;;;;;;;;;4994567;28;20033;-86
2021/11/28 06:20:16;;;;;;;18.65;11.25;;;;;;;;;;5016849;28;20033;-85
2021/11/28 06:22:42;;;;;;;20.60;11.27;;;;;;;;;;4989007;28;20429;-85
2021/11/28 06:25:08;;;;;;;21.20;11.57;;;;;;;;;;5008545;28;20034;-84
2021/11/28 06:27:33;;;;;;;19.88;11.52;;;;;;;;;;4990136;28;20379;-85
2021/11/28 06:29:59;;;;;;;20.75;11.35;;;;;;;;;;4988309;28;20080;-85
2021/11/28 06:32:25;;;;;;;24.15;13.00;;;;;;;;;;4999392;28;20123;-86
2021/11/28 06:34:50;;;;;;;23.10;12.52;;;;;;;;;;4996120;28;20065;-82
2021/11/28 06:37:15;;;;;;;24.08;12.55;;;;;;;;;;4991438;28;20034;-83
2021/11/28 06:39:41;;;;;;;18.98;10.52;;;;;;;;;;4988843;28;20026;-82
2021/11/28 06:42:06;;;;;;;19.20;10.40;;;;;;;;;;4983248;28;20040;-86
2021/11/28 06:44:32;;;;;;;17.35;9.73;;;;;;;;;;5006326;28;20048;-85
2021/11/28 06:46:58;;;;;;;18.10;10.40;;;;;;;;;;4994204;28;20044;-86
2021/11/28 06:49:26;;;;;;;18.50;10.20;;;;;;;;;;4991126;28;20029;-85
2021/11/28 06:51:52;;;;;;;17.95;9.80;;;;;;;;;;4995221;28;20033;-85
2021/11/28 06:54:18;;;;;;;15.45;9.05;;;;;;;;;;4986129;28;20437;-86
2021/11/28 06:56:43;;;;;;;17.05;9.60;;;;;;;;;;5004688;28;20026;-82
2021/11/28 06:59:09;;;;;;;16.15;9.57;;;;;;;;;;4983819;28;20033;-86
2021/11/28 07:01:34;;;;;;;20.48;10.77;;;;;;;;;;4991706;28;20029;-82
2021/11/28 07:03:59;;;;;;;21.88;10.75;;;;;;;;;;5003489;28;20059;-85
2021/11/28 07:06:25;;;;;;;20.85;10.80;;;;;;;;;;4989815;28;20048;-83
2021/11/28 07:08:50;;;;;;;21.10;11.65;;;;;;;;;;4980699;28;20033;-86
2021/11/28 07:11:16;;;;;;;24.73;12.60;;;;;;;;;;4998175;28;20041;-85
2021/11/28 07:13:41;;;;;;;25.38;13.05;;;;;;;;;;4991450;28;20486;-83
2021/11/28 07:16:06;;;;;;;25.25;12.55;;;;;;;;;;4991834;28;20053;-83
2021/11/28 07:18:32;;;;;;;30.63;14.90;;;;;;;;;;4994090;28;20037;-82
2021/11/28 07:20:57;;;;;;;33.65;15.07;;;;;;;;;;4995606;28;20037;-85
2021/11/28 07:23:22;;;;;;;33.28;15.80;;;;;;;;;;4987593;28;20033;-85
2021/11/28 07:25:49;;;;;;;33.58;16.98;;;;;;;;;;5007309;28;20099;-86
2021/11/28 07:28:15;;;;;;;35.58;16.42;;;;;;;;;;4998447;28;20040;-86
2021/11/28 07:30:42;;;;;;;34.88;16.90;;;;;;;;;;4998283;28;20112;-86
2021/11/28 07:33:07;;;;;;;38.53;18.02;;;;;;;;;;5024476;28;20123;-85
2021/11/28 07:35:33;;;;;;;36.63;17.17;;;;;;;;;;4995196;28;20034;-85
2021/11/28 07:37:58;;;;;;;39.22;18.05;;;;;;;;;;5001294;28;20078;-85
2021/11/28 07:40:23;;;;;;;38.58;17.60;;;;;;;;;;4992425;28;20033;-86
2021/11/28 07:42:49;;;;;;;41.53;18.83;;;;;;;;;;4998945;28;20112;-86
2021/11/28 07:45:14;;;;;;;44.78;20.90;;;;;;;;;;4981267;28;20023;-86
2021/11/28 07:47:39;;;;;;;45.38;19.70;;;;;;;;;;4982573;28;20401;-82
2021/11/28 07:50:07;;;;;;;46.42;21.23;;;;;;;;;;4990496;28;20022;-85
2021/11/28 07:52:32;;;;;;;46.08;20.67;;;;;;;;;;5011093;28;20441;-85
2021/11/28 07:54:58;;;;;;;44.70;20.27;;;;;;;;;;4990880;28;20026;-86
2021/11/28 07:57:23;;;;;;;41.97;20.10;;;;;;;;;;4991280;28;20037;-85
2021/11/28 07:59:48;;;;;;;46.60;20.88;;;;;;;;;;4991281;28;20145;-83
2021/11/28 08:02:18;;;;;;;45.80;21.25;;;;;;;;;;4987302;28;20028;-83
2021/11/28 08:04:45;;;;;;;43.30;20.67;;;;;;;;;;5018886;28;20109;-86
2021/11/28 08:07:11;;;;;;;41.78;19.70;;;;;;;;;;5014958;28;20025;-85
2021/11/28 08:09:36;;;;;;;40.88;19.52;;;;;;;;;;5021634;28;20033;-83
2021/11/28 08:12:03;;;;;;;35.90;17.95;;;;;;;;;;4999103;28;20084;-85
2021/11/28 08:14:29;;;;;;;37.28;18.67;;;;;;;;;;5002387;28;20400;-85
2021/11/28 08:16:54;;;;;;;36.40;18.45;;;;;;;;;;5001186;28;20030;-82
2021/11/28 08:19:19;;;;;;;31.55;15.88;;;;;;;;;;4991444;28;20121;-86
2021/11/28 08:21:44;;;;;;;31.27;17.08;;;;;;;;;;4991270;28;20478;-85
2021/11/28 08:24:10;;;;;;;30.90;16.38;;;;;;;;;;4992897;28;20381;-86
2021/11/28 08:26:36;;;;;;;29.73;16.00;;;;;;;;;;4994149;28;20112;-85
2021/11/28 08:29:04;;;;;;;28.80;15.02;;;;;;;;;;4988744;28;20025;-82
2021/11/28 08:31:30;;;;;;;28.90;15.38;;;;;;;;;;4987804;28;20114;-85
2021/11/28 08:33:56;;;;;;;26.70;14.48;;;;;;;;;;4987884;28;20109;-85
2021/11/28 08:36:21;;;;;;;26.15;14.25;;;;;;;;;;4998764;28;20026;-85
2021/11/28 08:38:48;;;;;;;27.88;15.07;;;;;;;;;;4987783;28;20147;-85
2021/11/28 08:41:15;;;;;;;28.38;14.35;;;;;;;;;;4991529;28;20049;-84
2021/11/28 08:43:41;;;;;;;28.60;13.98;;;;;;;;;;4993857;28;20101;-85
2021/11/28 08:46:08;;;;;;;26.92;14.60;;;;;;;;;;4990015;28;20037;-86
2021/11/28 08:48:34;;;;;;;30.08;15.40;;;;;;;;;;4998968;28;20038;-86
2021/11/28 08:51:00;;;;;;;28.65;15.10;;;;;;;;;;4998561;28;20130;-86
2021/11/28 08:53:26;;;;;;;29.70;15.27;;;;;;;;;;4984380;28;20062;-85
2021/11/28 08:55:51;;;;;;;28.52;15.32;;;;;;;;;;5013584;28;20057;-83
2021/11/28 08:58:17;;;;;;;25.58;13.98;;;;;;;;;;4997708;28;20037;-86
2021/11/28 09:00:43;;;;;;;25.50;14.50;;;;;;;;;;4989704;28;20477;-86
2021/11/28 09:03:08;;;;;;;25.65;13.38;;;;;;;;;;4990899;28;20032;-85
2021/11/28 09:05:34;;;;;;;25.75;14.13;;;;;;;;;;4998036;28;20405;-82
2021/11/28 09:08:00;;;;;;;26.73;13.80;;;;;;;;;;5000219;28;20164;-83
2021/11/28 09:10:26;;;;;;;27.70;14.18;;;;;;;;;;4999654;28;20037;-85
2021/11/28 09:12:52;;;;;;;24.92;13.18;;;;;;;;;;4990873;28;20124;-85
2021/11/28 09:15:18;;;;;;;24.02;13.38;;;;;;;;;;4997893;28;20160;-82
2021/11/28 09:17:49;;;;;;;23.45;13.07;;;;;;;;;;4996317;28;20038;-85
2021/11/28 09:20:19;;;;;;;26.15;14.07;;;;;;;;;;5016039;28;20112;-85
2021/11/28 09:25:14;;;;;;;27.50;13.88;;;;;;;;;;5023752;28;20420;-86
2021/11/28 09:27:42;;;;;;;27.17;13.27;;;;;;;;;;4996439;28;20497;-85
2021/11/28 09:30:08;;;;;;;25.88;12.80;;;;;;;;;;4988627;28;20030;-86
2021/11/28 09:32:34;;;;;;;26.35;13.93;;;;;;;;;;4989938;28;20493;-86
2021/11/28 09:34:59;;;;;;;25.95;13.10;;;;;;;;;;5000469;28;20021;-82
2021/11/28 09:37:24;;;;;;;25.77;13.30;;;;;;;;;;4989868;28;20025;-85
2021/11/28 09:39:50;;;;;;;27.60;14.23;;;;;;;;;;5000463;28;20048;-85
2021/11/28 09:42:27;;;;;;;25.05;13.73;;;;;;;;;;4985796;28;20029;-83
2021/11/28 09:44:53;;;;;;;23.52;11.85;;;;;;;;;;4980113;28;20058;-86
2021/11/28 09:47:19;;;;;;;28.40;13.68;;;;;;;;;;5008001;28;20022;-86
2021/11/28 09:49:51;;;;;;;27.13;13.20;;;;;;;;;;5011125;28;20032;-85
2021/11/28 09:52:24;;;;;;;28.52;14.32;;;;;;;;;;5000644;28;20033;-84
2021/11/28 09:55:19;;;;;;;25.45;14.10;;;;;;;;;;4995646;28;20362;-84
2021/11/28 09:57:53;;;;;;;27.33;13.85;;;;;;;;;;4971607;28;20042;-82
2021/11/28 10:00:22;;;;;;;28.33;14.10;;;;;;;;;;4990573;28;20034;-85
2021/11/28 10:02:50;;;;;;;26.27;12.80;;;;;;;;;;4993878;28;20034;-82
2021/11/28 10:05:24;;;;;;;26.17;13.82;;;;;;;;;;4994213;28;20744;-85
2021/11/28 10:08:25;;;;;;;24.98;12.85;;;;;;;;;;4990910;28;20061;-84
2021/11/28 10:11:23;;;;;;;24.60;13.25;;;;;;;;;;4991000;28;20057;-85
2021/11/28 10:13:51;;;;;;;27.85;13.80;;;;;;;;;;4986927;28;20679;-85
2021/11/28 10:16:22;;;;;;;27.55;13.80;;;;;;;;;;5025487;28;20029;-85
2021/11/28 10:18:57;;;;;;;25.25;13.18;;;;;;;;;;5009693;28;20030;-85
2021/11/28 10:21:23;;;;;;;25.40;13.23;;;;;;;;;;5037124;28;20026;-85
2021/11/28 10:24:55;;;;;;;25.05;13.25;;;;;;;;;;5008881;28;20026;-86
2021/11/28 10:34:25;;;;;;;24.55;12.48;;;;;;;;;;5013863;28;20033;-83
2021/11/28 10:37:25;;;;;;;23.05;12.40;;;;;;;;;;5018333;28;20029;-86
2021/11/28 10:39:58;;;;;;;24.27;12.65;;;;;;;;;;5013120;28;20091;-82
2021/11/28 10:42:33;;;;;;;23.95;12.50;;;;;;;;;;5042299;28;20082;-82
2021/11/28 10:45:21;;;;;;;23.27;12.18;;;;;;;;;;5006961;28;20143;-84
2021/11/28 10:47:56;;;;;;;24.58;12.70;;;;;;;;;;5008256;28;20021;-86
2021/11/28 10:50:29;;;;;;;22.15;11.95;;;;;;;;;;5030800;28;20032;-85
2021/11/28 10:53:19;;;;;;;23.92;12.98;;;;;;;;;;5024940;28;20040;-85
2021/11/28 10:55:58;;;;;;;21.90;11.93;;;;;;;;;;5004428;28;20037;-86
2021/11/28 10:58:30;;;;;;;24.23;13.25;;;;;;;;;;5006987;28;20043;-86
2021/11/28 11:01:05;;;;;;;24.00;11.82;;;;;;;;;;5012880;28;20026;-85
2021/11/28 11:03:50;;;;;;;22.40;12.27;;;;;;;;;;5024465;28;20022;-85
2021/11/28 11:06:24;;;;;;;22.85;12.23;;;;;;;;;;5012289;28;20029;-85
2021/11/28 11:09:10;;;;;;;24.45;12.20;;;;;;;;;;5007603;28;20045;-84
2021/11/28 11:11:36;;;;;;;24.95;12.90;;;;;;;;;;5012771;28;20053;-86
2021/11/28 11:14:04;;;;;;;23.38;13.18;;;;;;;;;;5014459;28;20447;-85
2021/11/28 11:16:45;;;;;;;25.80;12.77;;;;;;;;;;5009109;28;20032;-86
2021/11/28 11:19:34;;;;;;;23.40;11.80;;;;;;;;;;5013062;28;20033;-85
2021/11/28 11:22:19;;;;;;;24.20;12.52;;;;;;;;;;5005998;28;20870;-83
2021/11/28 11:25:04;;;;;;;23.98;12.43;;;;;;;;;;5008870;28;20099;-86
2021/11/28 11:27:36;;;;;;;24.10;12.38;;;;;;;;;;5017273;28;20025;-86
2021/11/28 11:30:16;;;;;;;23.65;11.98;;;;;;;;;;5012287;28;20021;-86
2021/11/28 11:32:56;;;;;;;21.77;11.40;;;;;;;;;;5012227;28;20163;-86
2021/11/28 11:35:23;;;;;;;20.25;11.30;;;;;;;;;;5010542;28;20025;-85
2021/11/28 11:37:51;;;;;;;18.55;10.05;;;;;;;;;;5013410;28;20111;-86
2021/11/28 11:40:19;;;;;;;18.25;9.25;;;;;;;;;;5014440;28;20069;-85
2021/11/28 11:42:46;;;;;;;18.20;9.25;;;;;;;;;;5009261;28;20044;-85
2021/11/28 11:45:14;;;;;;;16.13;7.88;;;;;;;;;;5024152;28;20022;-84
2021/11/28 11:47:40;;;;;;;15.20;7.65;;;;;;;;;;5002128;28;20029;-86
2021/11/28 11:50:11;;;;;;;15.82;7.78;;;;;;;;;;5005650;28;20025;-83
2021/11/28 11:52:39;;;;;;;14.65;7.25;;;;;;;;;;5013462;28;20029;-84
2021/11/28 11:55:15;;;;;;;11.13;6.03;;;;;;;;;;5021004;28;20038;-85
2021/11/28 11:58:07;;;;;;;10.57;6.25;;;;;;;;;;5012928;28;20619;-86
2021/11/28 12:00:46;;;;;;;11.13;6.00;;;;;;;;;;5003969;28;20029;-85
2021/11/28 12:03:18;;;;;;;11.75;6.10;;;;;;;;;;5007532;28;20129;-84
2021/11/28 12:06:09;;;;;;;12.30;6.38;;;;;;;;;;5011274;28;20624;-87
2021/11/28 12:08:49;;;;;;;11.40;5.63;;;;;;;;;;5007812;28;20038;-86
2021/11/28 12:11:15;;;;;;;10.93;5.45;;;;;;;;;;5002785;28;20042;-85
2021/11/28 12:13:44;;;;;;;10.13;5.00;;;;;;;;;;5010682;28;20029;-84
2021/11/28 12:16:18;;;;;;;8.32;3.83;;;;;;;;;;5011281;28;20065;-83
2021/11/28 12:18:49;;;;;;;6.65;2.60;;;;;;;;;;4995131;28;20033;-83
2021/11/28 12:21:44;;;;;;;4.45;1.88;;;;;;;;;;4993699;28;20030;-84
2021/11/28 12:24:59;;;;;;;5.03;2.10;;;;;;;;;;4977491;28;20413;-82
2021/11/28 12:27:49;;;;;;;3.15;1.38;;;;;;;;;;4997936;28;20101;-84
2021/11/28 12:30:34;;;;;;;3.35;1.33;;;;;;;;;;4990730;28;20024;-85
2021/11/28 12:32:59;;;;;;;3.03;1.17;;;;;;;;;;4987667;28;20034;-85
2021/11/28 12:35:38;;;;;;;2.63;1.23;;;;;;;;;;4992292;28;20053;-85
2021/11/28 12:38:04;;;;;;;2.92;1.05;;;;;;;;;;4994720;28;20060;-85
2021/11/28 12:40:35;;;;;;;2.45;1.10;;;;;;;;;;4997954;28;20061;-83
2021/11/28 12:43:27;;;;;;;1.10;0.80;;;;;;;;;;4992980;28;20025;-85
2021/11/28 12:45:52;;;;;;;2.13;0.60;;;;;;;;;;4991819;28;20046;-82
2021/11/28 12:48:23;;;;;;;1.58;0.70;;;;;;;;;;4996605;28;20022;-82
2021/11/28 12:50:58;;;;;;;1.13;0.60;;;;;;;;;;5016750;28;20053;-85
2021/11/28 12:53:41;;;;;;;0.60;0.40;;;;;;;;;;4998289;28;20533;-83
2021/11/28 12:56:10;;;;;;;1.17;0.52;;;;;;;;;;5018771;28;20738;-85
2021/11/28 12:58:35;;;;;;;0.70;0.50;;;;;;;;;;4998221;28;20453;-83
2021/11/28 13:01:00;;;;;;;1.23;0.70;;;;;;;;;;4985304;28;20054;-83
2021/11/28 13:03:26;;;;;;;1.42;0.80;;;;;;;;;;4997627;28;20030;-86
2021/11/28 13:05:56;;;;;;;1.98;0.95;;;;;;;;;;5000897;28;20017;-85
2021/11/28 13:08:25;;;;;;;0.77;0.60;;;;;;;;;;5015156;28;20021;-82
2021/11/28 13:10:54;;;;;;;2.05;0.60;;;;;;;;;;5006817;28;20133;-83
2021/11/28 13:13:23;;;;;;;1.10;0.60;;;;;;;;;;5000342;28;20048;-84
2021/11/28 13:15:58;;;;;;;3.70;0.50;;;;;;;;;;5015889;28;20034;-82
2021/11/28 13:18:27;;;;;;;4.40;0.45;;;;;;;;;;4997540;28;20444;-85
2021/11/28 13:21:20;;;;;;;1.25;0.50;;;;;;;;;;4998115;28;20022;-84
2021/11/28 13:23:51;;;;;;;1.03;0.50;;;;;;;;;;5004427;28;20072;-86
2021/11/28 13:26:22;;;;;;;2.10;0.75;;;;;;;;;;5005382;28;20026;-86
2021/11/28 13:28:49;;;;;;;2.50;0.52;;;;;;;;;;4994750;28;20030;-84
2021/11/28 13:31:22;;;;;;;1.50;0.40;;;;;;;;;;5014850;28;20536;-84
2021/11/28 13:33:57;;;;;;;3.30;0.50;;;;;;;;;;5027125;28;20437;-82
2021/11/28 13:36:37;;;;;;;1.58;0.40;;;;;;;;;;4978691;28;20037;-85
2021/11/28 13:39:06;;;;;;;2.05;0.40;;;;;;;;;;5020862;28;20113;-85
2021/11/28 13:41:31;;;;;;;0.70;0.30;;;;;;;;;;5016013;28;20024;-82
2021/11/28 13:44:00;;;;;;;0.63;0.30;;;;;;;;;;5021524;28;20034;-82
2021/11/28 13:46:33;;;;;;;0.93;0.40;;;;;;;;;;5005462;28;20026;-82
2021/11/28 13:49:02;;;;;;;1.10;0.40;;;;;;;;;;5018901;28;20549;-84
2021/11/28 13:51:36;;;;;;;0.85;0.30;;;;;;;;;;5014087;28;20018;-84
2021/11/28 13:54:04;;;;;;;0.77;0.50;;;;;;;;;;5013790;28;20111;-84
2021/11/28 13:56:54;;;;;;;0.88;0.40;;;;;;;;;;5025846;28;20493;-85
2021/11/28 13:59:22;;;;;;;1.17;0.43;;;;;;;;;;5023571;28;20374;-84
2021/11/28 14:02:12;;;;;;;1.08;0.40;;;;;;;;;;5001870;28;20032;-85
2021/11/28 14:04:39;;;;;;;0.60;0.40;;;;;;;;;;5006994;28;20084;-84
2021/11/28 14:07:10;;;;;;;0.63;0.45;;;;;;;;;;5013707;28;20099;-85
2021/11/28 14:09:40;;;;;;;1.65;0.70;;;;;;;;;;5018883;28;20029;-85
2021/11/28 14:12:10;;;;;;;2.95;1.20;;;;;;;;;;5008547;28;20069;-84
2021/11/28 14:14:37;;;;;;;1.50;0.65;;;;;;;;;;5001092;28;20022;-85
2021/11/28 14:17:02;;;;;;;1.52;0.60;;;;;;;;;;4996053;28;20075;-86
2021/11/28 14:19:38;;;;;;;0.90;0.60;;;;;;;;;;4996212;28;20428;-84
2021/11/28 14:22:37;;;;;;;0.50;0.40;;;;;;;;;;5006786;28;20034;-84
2021/11/28 14:25:25;;;;;;;0.88;0.45;;;;;;;;;;5007210;28;20061;-85
2021/11/28 14:28:08;;;;;;;0.40;0.30;;;;;;;;;;5004318;28;20033;-85
2021/11/28 14:30:35;;;;;;;1.27;0.40;;;;;;;;;;4995150;28;20040;-85
2021/11/28 14:33:05;;;;;;;0.57;0.32;;;;;;;;;;4996586;28;20026;-82
2021/11/28 14:35:31;;;;;;;0.80;0.30;;;;;;;;;;4997494;28;20120;-85
2021/11/28 14:38:15;;;;;;;0.55;0.28;;;;;;;;;;5001094;28;20503;-84
2021/11/28 14:40:49;;;;;;;2.40;1.58;;;;;;;;;;4981078;28;20566;-86
2021/11/28 14:43:15;;;;;;;3.83;2.40;;;;;;;;;;4995228;28;20500;-84